Terminal Aerodrome Forecast
Issued by NWS

Home | Current Version | Previous Version | Text Only | Print | Product List | Glossary On
Versions: 1 2 3 4 5 6 7 8 9 10 11 12 13 14 15 16 17 18 19 20 21 22 23 24
000
FTUS46 KSEW 010900 AAA
TAFHQM
TAF AMD
KHQM 010901Z 0109/0206 30005KT 6SM BR FEW015
     FM011200 VRB03KT 2SM BR OVC005
     FM011800 22006KT P6SM OVC011
     FM012000 25012KT P6SM FEW028 BKN200
     FM020100 30006KT P6SM BKN200=

USA.gov is the U.S. government's official web portal to all federal, state and local government web resources and services.